Time;durP1;ratioP1;P1;durP2;ratioP2;P2;SDS_P1;SDS_P2;PMS_P1;PMS_P2;Temp;Humidity;BMP_temperature;BMP_pressure;BME280_temperature;BME280_humidity;BME280_pressure;Samples;Min_cycle;Max_cycle;Signal;HPM_P1;HPM_P2
2023/04/13 00:01:35;;;;;;;;;12.20;11.40;;;;;10.77;36.29;98447.13;5028792;28;8868;-81
2023/04/13 00:04:04;;;;;;;;;13.40;12.80;;;;;10.75;35.86;98448.97;5019317;28;8889;-81
2023/04/13 00:06:37;;;;;;;;;13.40;13.20;;;;;10.74;35.43;98442.00;5050407;28;9711;-81
2023/04/13 00:09:08;;;;;;;;;14.60;13.60;;;;;10.80;35.26;98438.25;5059769;28;8870;-81
2023/04/13 00:11:37;;;;;;;;;14.20;13.80;;;;;10.78;35.51;98434.84;5070416;28;8846;-82
2023/04/13 00:14:06;;;;;;;;;13.60;11.40;;;;;10.74;35.58;98428.84;5068419;28;8903;-79
2023/04/13 00:16:35;;;;;;;;;14.00;12.60;;;;;10.77;35.35;98427.88;5051609;28;8840;-82
2023/04/13 00:19:04;;;;;;;;;12.80;12.60;;;;;10.79;35.76;98432.16;4980631;28;8863;-81
2023/04/13 00:21:33;;;;;;;;;13.00;11.60;;;;;10.82;35.21;98430.31;4996563;28;8950;-80
2023/04/13 00:24:02;;;;;;;;;14.40;13.80;;;;;10.79;35.56;98426.06;5012308;28;8852;-80
2023/04/13 00:26:32;;;;;;;;;15.60;15.00;;;;;10.72;35.46;98424.53;4995379;28;8967;-80
2023/04/13 00:29:01;;;;;;;;;15.00;14.20;;;;;10.83;35.72;98424.16;5030253;28;8832;-83
2023/04/13 00:31:30;;;;;;;;;12.20;12.00;;;;;10.84;35.51;98415.34;5013007;28;8845;-81
2023/04/13 00:33:59;;;;;;;;;9.40;9.40;;;;;10.74;35.79;98420.97;4962843;28;9000;-82
2023/04/13 00:36:29;;;;;;;;;7.60;7.60;;;;;10.74;36.22;98422.75;5011448;28;8856;-79
2023/04/13 00:38:58;;;;;;;;;11.40;10.40;;;;;10.71;36.27;98425.47;4995834;28;9005;-82
2023/04/13 00:41:27;;;;;;;;;18.00;17.00;;;;;10.68;36.35;98421.19;4992999;28;8877;-82
2023/04/13 00:43:57;;;;;;;;;14.00;13.60;;;;;10.61;35.85;98430.22;4992001;28;9108;-81
2023/04/13 00:46:30;;;;;;;;;12.60;11.40;;;;;10.51;35.76;98429.72;4974608;28;8891;-80
2023/04/13 00:49:00;;;;;;;;;13.80;13.00;;;;;10.44;36.01;98430.03;4973004;28;8972;-81
2023/04/13 00:51:31;;;;;;;;;13.00;13.00;;;;;10.59;35.83;98424.16;4972388;28;8860;-81
2023/04/13 00:54:01;;;;;;;;;16.60;16.60;;;;;10.59;36.06;98432.94;4972364;28;8873;-81
2023/04/13 00:56:32;;;;;;;;;16.00;13.80;;;;;10.67;36.06;98427.38;5003895;28;8872;-82
2023/04/13 00:59:02;;;;;;;;;22.60;22.00;;;;;10.73;36.02;98424.53;5011873;28;9006;-82
2023/04/13 01:01:31;;;;;;;;;16.60;15.20;;;;;10.70;36.12;98429.84;4967357;28;8864;-83
2023/04/13 01:04:00;;;;;;;;;20.20;17.80;;;;;10.71;35.75;98433.38;5036457;28;8860;-80
2023/04/13 01:06:40;;;;;;;;;18.60;17.40;;;;;10.71;35.79;98431.59;5027830;28;8891;-80
2023/04/13 01:09:15;;;;;;;;;12.80;12.20;;;;;10.31;35.82;98441.00;5027401;28;8860;-80
2023/04/13 01:11:52;;;;;;;;;11.40;11.40;;;;;10.26;35.56;98434.22;5013863;28;8963;-81
2023/04/13 01:14:29;;;;;;;;;21.20;19.40;;;;;10.29;36.54;98437.59;5051231;28;8837;-79
2023/04/13 01:17:04;;;;;;;;;21.20;19.80;;;;;10.38;36.05;98437.22;5055360;28;8838;-81
2023/04/13 01:19:50;;;;;;;;;19.00;19.00;;;;;10.51;35.91;98437.59;5069366;28;8865;-79
2023/04/13 01:22:22;;;;;;;;;15.20;14.40;;;;;10.48;35.77;98431.59;5052830;28;8871;-80
2023/04/13 01:25:07;;;;;;;;;13.20;13.20;;;;;10.65;35.40;98437.09;5032195;28;8860;-80
2023/04/13 01:27:45;;;;;;;;;15.60;15.60;;;;;10.72;35.28;98428.03;5048790;28;9634;-81
2023/04/13 01:30:20;;;;;;;;;18.80;16.20;;;;;10.69;34.74;98422.03;5074201;28;8936;-82
2023/04/13 01:32:52;;;;;;;;;16.60;16.60;;;;;10.68;34.44;98417.69;5062761;28;8850;-82
2023/04/13 01:35:22;;;;;;;;;14.00;14.00;;;;;10.73;34.02;98416.63;5051276;28;8895;-81
2023/04/13 01:37:54;;;;;;;;;17.80;17.40;;;;;10.77;34.27;98412.13;5052565;28;8883;-80
2023/04/13 01:40:29;;;;;;;;;11.80;11.80;;;;;10.81;34.23;98413.69;5047896;28;8932;-81
2023/04/13 01:43:01;;;;;;;;;14.20;11.60;;;;;10.79;33.74;98415.53;5066756;28;8884;-82
2023/04/13 01:45:46;;;;;;;;;12.40;12.20;;;;;10.82;32.92;98425.06;5066905;28;8842;-82
2023/04/13 01:48:21;;;;;;;;;9.60;9.40;;;;;10.79;33.18;98418.16;5019129;28;8920;-82
2023/04/13 01:51:00;;;;;;;;;7.80;7.80;;;;;10.73;32.19;98414.00;5068138;28;8854;-81
2023/04/13 01:53:44;;;;;;;;;8.20;8.20;;;;;10.75;32.25;98420.06;5051682;28;8861;-81
2023/04/13 01:56:21;;;;;;;;;6.00;6.00;;;;;10.76;31.71;98418.28;5068808;28;8850;-83
2023/04/13 01:58:59;;;;;;;;;7.20;6.60;;;;;10.81;31.80;98426.00;5051228;28;8853;-80
2023/04/13 02:01:29;;;;;;;;;6.40;6.40;;;;;10.80;31.27;98419.84;5068531;28;8886;-82
2023/04/13 02:04:00;;;;;;;;;5.80;5.40;;;;;10.86;31.28;98413.50;5031386;28;8910;-81
2023/04/13 02:06:31;;;;;;;;;7.20;5.60;;;;;10.86;30.83;98414.38;5047849;28;9027;-81
2023/04/13 02:09:05;;;;;;;;;5.40;5.40;;;;;10.89;30.72;98419.50;5030402;28;8873;-82
2023/04/13 02:11:35;;;;;;;;;7.00;5.60;;;;;10.98;30.77;98405.13;5051415;28;8838;-81
2023/04/13 02:14:08;;;;;;;;;7.00;7.00;;;;;11.06;30.60;98403.03;5053474;28;8878;-79
2023/04/13 02:16:37;;;;;;;;;7.20;7.20;;;;;11.07;30.32;98401.28;5067694;28;8862;-80
2023/04/13 02:19:07;;;;;;;;;7.20;6.00;;;;;11.12;30.09;98408.06;5067924;28;9576;-81
2023/04/13 02:21:37;;;;;;;;;7.20;6.60;;;;;11.12;30.30;98417.69;5050873;28;8867;-80
2023/04/13 02:24:07;;;;;;;;;6.00;4.00;;;;;11.25;30.33;98416.28;5067304;28;8878;-80
2023/04/13 02:26:37;;;;;;;;;8.80;7.00;;;;;11.19;30.83;98406.00;5021226;28;8866;-82
2023/04/13 02:29:07;;;;;;;;;8.60;8.60;;;;;11.35;30.71;98411.47;5052350;28;8846;-80
2023/04/13 02:31:44;;;;;;;;;14.00;12.80;;;;;11.24;31.73;98411.06;5067065;28;8884;-78
2023/04/13 02:34:13;;;;;;;;;13.40;11.60;;;;;11.24;31.19;98409.31;5066789;28;8914;-80
2023/04/13 02:36:43;;;;;;;;;11.40;9.00;;;;;11.27;31.62;98401.28;5034082;28;8854;-81
2023/04/13 02:39:12;;;;;;;;;6.20;5.60;;;;;11.29;31.09;98399.44;5058778;28;8874;-80
2023/04/13 02:41:41;;;;;;;;;6.00;4.80;;;;;11.31;30.40;98394.13;5069086;28;8852;-79
2023/04/13 02:44:17;;;;;;;;;7.20;6.80;;;;;11.30;29.85;98385.38;5047431;28;8866;-81
2023/04/13 02:46:55;;;;;;;;;4.00;4.00;;;;;11.27;29.90;98382.84;5033454;28;8875;-81
2023/04/13 02:49:25;;;;;;;;;4.00;3.60;;;;;11.30;29.68;98392.41;5057081;28;8847;-81
2023/04/13 02:52:00;;;;;;;;;6.80;6.80;;;;;11.27;29.82;98393.38;5019605;28;8863;-81
2023/04/13 02:54:43;;;;;;;;;6.20;6.20;;;;;11.28;29.51;98387.22;5034444;28;8855;-80
2023/04/13 02:57:12;;;;;;;;;7.20;6.40;;;;;11.22;29.55;98389.25;5050267;28;8907;-81
2023/04/13 02:59:44;;;;;;;;;7.60;7.00;;;;;11.25;29.83;98392.59;5033957;28;8870;-80
2023/04/13 03:02:13;;;;;;;;;10.40;7.00;;;;;11.29;29.27;98393.31;5042295;28;8875;-81
2023/04/13 03:04:43;;;;;;;;;58.75;49.25;;;;;11.26;29.29;98396.94;5040119;28;8847;-81
2023/04/13 03:07:13;;;;;;;;;12.20;12.00;;;;;11.04;30.21;98394.34;5036347;28;8879;-81
2023/04/13 03:09:47;;;;;;;;;13.80;13.40;;;;;11.03;30.40;98391.78;5044666;28;8862;-82
2023/04/13 03:12:18;;;;;;;;;7.80;7.80;;;;;11.19;30.32;98395.50;5013927;28;8858;-82
2023/04/13 03:14:51;;;;;;;;;6.80;6.80;;;;;11.22;29.78;98386.59;5003044;28;8960;-80
2023/04/13 03:17:22;;;;;;;;;6.80;6.00;;;;;11.13;29.78;98375.56;5067333;28;8890;-82
2023/04/13 03:19:52;;;;;;;;;6.00;5.20;;;;;11.08;30.00;98384.56;5034803;28;8872;-80
2023/04/13 03:22:24;;;;;;;;;7.60;6.60;;;;;11.01;30.04;98383.97;5072714;28;8907;-81
2023/04/13 03:24:54;;;;;;;;;7.80;7.00;;;;;10.99;30.50;98388.41;5072034;28;8887;-81
2023/04/13 03:27:30;;;;;;;;;6.80;6.00;;;;;10.96;30.25;98389.41;5054889;28;8887;-82
2023/04/13 03:30:01;;;;;;;;;10.20;9.00;;;;;10.90;30.28;98391.47;5070967;28;8836;-80
2023/04/13 03:32:37;;;;;;;;;10.60;9.80;;;;;10.96;30.00;98392.03;5054742;28;9597;-82
2023/04/13 03:35:06;;;;;;;;;10.20;8.40;;;;;11.00;30.29;98394.56;5070925;28;8859;-80
2023/04/13 03:37:41;;;;;;;;;14.00;13.00;;;;;10.80;30.41;98401.47;5070756;28;8859;-81
2023/04/13 03:40:42;;;;;;;;;10.20;10.20;;;;;10.83;30.47;98403.97;4954432;28;8998;-81
2023/04/13 03:43:11;;;;;;;;;11.60;9.40;;;;;10.37;30.83;98403.16;4954020;28;8895;-80
2023/04/13 03:45:50;;;;;;;;;21.60;21.60;;;;;10.66;30.75;98401.16;4953314;28;8864;-80
2023/04/13 03:48:20;;;;;;;;;53.50;43.00;;;;;10.77;30.86;98399.81;4923009;28;8848;-81
2023/04/13 03:50:49;;;;;;;;;12.00;12.00;;;;;10.84;30.69;98400.44;4954402;28;8886;-82
2023/04/13 03:53:23;;;;;;;;;11.00;9.80;;;;;10.90;30.69;98397.56;4953882;28;8911;-81
2023/04/13 03:55:56;;;;;;;;;11.80;9.20;;;;;10.88;30.28;98391.50;4954480;28;8848;-80
2023/04/13 03:58:25;;;;;;;;;12.40;12.00;;;;;10.83;30.25;98401.34;4923088;28;8889;-82
2023/04/13 04:00:56;;;;;;;;;10.60;9.00;;;;;10.87;30.46;98396.81;4953635;28;8943;-81
2023/04/13 04:03:41;;;;;;;;;8.40;8.00;;;;;10.90;30.68;98397.56;4938748;28;8911;-81
2023/04/13 04:06:10;;;;;;;;;33.40;32.80;;;;;10.90;30.79;98387.03;4923544;28;8905;-80
2023/04/13 04:08:44;;;;;;;;;13.20;12.60;;;;;10.78;31.14;98390.16;4936571;28;8977;-79
2023/04/13 04:11:27;;;;;;;;;12.00;9.40;;;;;10.80;30.84;98393.56;4949207;28;8948;-82
2023/04/13 04:13:56;;;;;;;;;11.00;9.00;;;;;10.66;31.13;98388.00;4918295;28;8861;-83
2023/04/13 04:16:28;;;;;;;;;12.00;8.80;;;;;10.56;30.88;98395.41;4965488;28;8859;-82
2023/04/13 04:19:06;;;;;;;;;7.80;7.60;;;;;10.51;31.04;98379.78;5028331;28;8864;-81
2023/04/13 04:21:34;;;;;;;;;8.00;7.20;;;;;10.54;31.01;98382.31;5011927;28;8879;-81
2023/04/13 04:24:11;;;;;;;;;6.00;6.00;;;;;10.54;30.89;98384.09;4972827;28;8880;-80
2023/04/13 04:26:49;;;;;;;;;9.80;8.40;;;;;10.45;30.78;98384.44;4956743;28;8903;-81
2023/04/13 04:29:20;;;;;;;;;9.60;7.80;;;;;10.33;31.00;98386.63;4988657;28;8853;-85
2023/04/13 04:31:56;;;;;;;;;7.60;6.80;;;;;10.30;31.11;98380.66;4988252;28;9587;-81
2023/04/13 04:34:25;;;;;;;;;7.00;6.00;;;;;10.26;31.18;98379.06;4979489;28;8891;-81
2023/04/13 04:36:55;;;;;;;;;8.20;7.20;;;;;10.34;31.39;98387.50;4965743;28;8872;-81
2023/04/13 04:39:34;;;;;;;;;4.20;4.20;;;;;10.31;31.02;98382.34;4974943;28;8836;-81
2023/04/13 04:42:12;;;;;;;;;8.60;7.40;;;;;10.24;31.20;98380.88;5029006;28;8877;-82
2023/04/13 04:44:43;;;;;;;;;7.60;6.60;;;;;10.30;31.12;98378.88;5050652;28;8860;-81
2023/04/13 04:47:16;;;;;;;;;5.60;5.60;;;;;10.38;30.54;98375.94;5036672;28;8859;-81
2023/04/13 04:50:02;;;;;;;;;7.40;7.40;;;;;10.41;30.81;98381.09;5066568;28;8845;-81
2023/04/13 04:52:37;;;;;;;;;7.00;7.00;;;;;10.31;30.94;98377.09;5033019;28;9049;-82
2023/04/13 04:55:07;;;;;;;;;8.40;7.60;;;;;10.34;31.25;98369.09;5049091;28;8862;-83
2023/04/13 04:57:40;;;;;;;;;7.00;7.00;;;;;10.51;30.89;98371.06;5046216;28;8998;-81
2023/04/13 05:00:14;;;;;;;;;7.80;7.80;;;;;10.41;31.03;98365.31;4986050;28;8868;-81
2023/04/13 05:02:50;;;;;;;;;9.20;8.40;;;;;10.49;31.10;98359.78;5051901;28;8860;-80
2023/04/13 05:05:21;;;;;;;;;8.00;8.00;;;;;10.37;31.49;98364.59;5051544;28;8933;-81
2023/04/13 05:07:50;;;;;;;;;10.80;10.40;;;;;10.42;31.40;98363.53;5052365;28;8890;-81
2023/04/13 05:10:23;;;;;;;;;8.00;8.00;;;;;10.51;31.29;98357.94;5036739;28;8894;-82
2023/04/13 05:12:56;;;;;;;;;11.20;9.00;;;;;10.52;31.16;98352.63;5053602;28;8910;-82
2023/04/13 05:15:27;;;;;;;;;9.00;9.00;;;;;10.59;30.89;98343.59;4999247;28;8989;-81
2023/04/13 05:18:00;;;;;;;;;11.40;10.60;;;;;10.73;30.39;98345.66;5011935;28;8850;-81
2023/04/13 05:20:30;;;;;;;;;10.60;8.60;;;;;10.76;30.62;98342.94;5052795;28;8866;-82
2023/04/13 05:23:04;;;;;;;;;10.20;9.20;;;;;10.77;30.58;98351.66;5053999;28;8854;-81
2023/04/13 05:25:38;;;;;;;;;9.00;8.00;;;;;10.92;30.39;98353.66;5072948;28;8847;-80
2023/04/13 05:28:16;;;;;;;;;9.20;8.80;;;;;10.98;30.22;98349.91;5073001;28;8993;-82
2023/04/13 05:30:48;;;;;;;;;10.60;10.60;;;;;11.11;30.10;98352.88;5088608;28;8840;-82
2023/04/13 05:33:20;;;;;;;;;8.60;7.60;;;;;11.25;30.22;98354.91;5056678;28;9765;-83
2023/04/13 05:35:54;;;;;;;;;10.80;9.00;;;;;11.25;30.11;98350.50;5055074;28;8873;-81
2023/04/13 05:38:23;;;;;;;;;12.60;9.00;;;;;11.36;30.04;98356.16;5035360;28;8862;-81
2023/04/13 05:40:53;;;;;;;;;11.80;7.80;;;;;11.55;29.80;98350.94;5069068;28;8884;-84
2023/04/13 05:43:22;;;;;;;;;8.40;7.60;;;;;11.66;29.50;98345.22;5087704;28;8866;-81
2023/04/13 05:45:54;;;;;;;;;8.60;8.00;;;;;11.74;29.68;98347.50;5041049;28;8961;-82
2023/04/13 05:48:25;;;;;;;;;12.80;11.60;;;;;11.91;29.37;98344.13;5070353;28;8878;-82
2023/04/13 05:50:58;;;;;;;;;8.80;8.60;;;;;12.06;29.33;98350.50;5070163;28;8855;-83
2023/04/13 05:53:31;;;;;;;;;8.20;8.00;;;;;12.18;29.07;98349.06;5044245;28;8977;-83
2023/04/13 05:56:00;;;;;;;;;10.80;9.80;;;;;12.20;29.19;98342.81;5035342;28;8851;-84
2023/04/13 05:58:30;;;;;;;;;12.20;10.00;;;;;12.28;29.25;98345.94;5048676;28;8846;-83
2023/04/13 06:01:13;;;;;;;;;9.00;7.20;;;;;12.43;28.79;98341.72;5068745;28;8860;-84
2023/04/13 06:03:45;;;;;;;;;10.00;10.00;;;;;12.50;29.08;98345.75;4999917;28;9056;-81
2023/04/13 06:06:19;;;;;;;;;11.20;9.00;;;;;12.65;28.82;98352.06;4991802;28;8920;-82
2023/04/13 06:08:49;;;;;;;;;7.80;5.80;;;;;12.53;28.79;98348.22;4946008;28;8874;-82
2023/04/13 06:11:19;;;;;;;;;8.00;7.00;;;;;12.69;28.69;98352.75;4978409;28;8902;-82
2023/04/13 06:13:50;;;;;;;;;10.60;10.20;;;;;12.88;28.50;98347.47;4958514;28;8849;-81
2023/04/13 06:16:20;;;;;;;;;10.80;10.00;;;;;12.93;28.26;98343.66;4998885;28;8877;-83
2023/04/13 06:18:53;;;;;;;;;9.20;8.00;;;;;13.18;28.27;98349.50;4935106;28;8873;-82
2023/04/13 06:21:22;;;;;;;;;8.80;7.40;;;;;13.23;28.22;98348.34;4954768;28;8963;-82
2023/04/13 06:23:51;;;;;;;;;6.20;6.20;;;;;13.35;27.55;98352.13;4925866;28;8885;-81
2023/04/13 06:26:34;;;;;;;;;10.60;9.60;;;;;13.49;27.52;98346.16;4942147;28;8974;-84
2023/04/13 06:29:06;;;;;;;;;9.40;8.00;;;;;13.43;27.12;98349.97;4883375;29;8935;-83
2023/04/13 06:31:43;;;;;;;;;6.80;6.80;;;;;13.67;27.19;98344.31;4949347;28;8894;-82
2023/04/13 06:34:19;;;;;;;;;9.40;8.40;;;;;13.70;27.29;98344.16;4962825;28;8955;-82
2023/04/13 06:36:48;;;;;;;;;8.40;7.00;;;;;13.82;26.73;98342.69;4937446;28;8894;-83
2023/04/13 06:39:20;;;;;;;;;7.40;7.40;;;;;13.81;26.75;98341.84;4944105;28;8920;-85
2023/04/13 06:41:57;;;;;;;;;8.40;7.00;;;;;13.82;26.57;98334.75;4954015;28;8961;-84
2023/04/13 06:45:02;;;;;;;;;9.20;6.20;;;;;13.95;26.48;98334.94;4950105;28;8932;-83
2023/04/13 06:47:40;;;;;;;;;9.00;8.20;;;;;13.93;26.56;98336.81;4937378;28;8938;-86
2023/04/13 06:50:16;;;;;;;;;10.60;9.00;;;;;14.03;26.44;98333.56;4947081;28;8916;-84
2023/04/13 06:52:47;;;;;;;;;6.80;5.40;;;;;14.14;26.63;98327.72;4987855;28;9001;-83
2023/04/13 06:55:17;;;;;;;;;9.60;8.80;;;;;14.11;26.48;98327.03;4983760;28;8866;-82
2023/04/13 06:57:47;;;;;;;;;9.80;7.80;;;;;14.37;26.21;98334.34;5000687;28;8906;-82
2023/04/13 07:00:17;;;;;;;;;6.80;5.80;;;;;14.39;26.27;98332.47;5017691;28;8962;-80
2023/04/13 07:03:00;;;;;;;;;6.80;6.60;;;;;14.65;25.99;98330.16;4963397;28;8868;-82
2023/04/13 07:05:32;;;;;;;;;7.60;6.00;;;;;14.77;26.33;98326.00;4939388;28;9571;-83
2023/04/13 07:08:10;;;;;;;;;9.00;7.40;;;;;14.95;26.05;98332.03;4956864;28;9303;-84
2023/04/13 07:10:41;;;;;;;;;7.20;6.00;;;;;15.11;25.93;98330.16;4968606;28;8860;-83
2023/04/13 07:13:25;;;;;;;;;9.40;8.00;;;;;15.05;25.98;98331.38;4960426;28;8875;-83
2023/04/13 07:15:56;;;;;;;;;10.80;9.80;;;;;15.35;26.29;98337.59;4992994;28;8880;-85
2023/04/13 07:18:25;;;;;;;;;9.00;7.20;;;;;15.29;26.70;98335.31;4967281;28;8938;-83
2023/04/13 07:20:56;;;;;;;;;7.00;7.00;;;;;15.35;27.07;98333.13;5032275;28;9720;-86
2023/04/13 07:23:33;;;;;;;;;10.80;9.80;;;;;15.53;27.09;98338.25;5017373;28;8862;-83
2023/04/13 07:26:03;;;;;;;;;7.20;7.20;;;;;15.56;26.63;98330.97;5017376;28;8905;-83
2023/04/13 07:28:32;;;;;;;;;11.60;9.80;;;;;15.71;26.72;98336.34;5030693;28;8868;-84
2023/04/13 07:31:02;;;;;;;;;13.40;11.20;;;;;15.74;26.23;98338.81;5010622;28;8899;-82
2023/04/13 07:33:31;;;;;;;;;10.00;10.00;;;;;15.80;26.29;98330.47;4993896;28;8859;-84
2023/04/13 07:36:02;;;;;;;;;11.80;10.40;;;;;16.01;26.05;98323.81;5069523;28;8941;-87
2023/04/13 07:38:33;;;;;;;;;6.60;6.60;;;;;15.85;25.33;98325.75;5044947;28;8859;-82
2023/04/13 07:41:02;;;;;;;;;10.80;10.00;;;;;16.05;25.59;98328.94;5054523;28;8866;-82
2023/04/13 07:43:36;;;;;;;;;5.80;5.80;;;;;16.02;25.14;98324.69;5033450;28;8899;-82
2023/04/13 07:46:11;;;;;;;;;8.60;7.40;;;;;16.14;24.90;98333.66;5002931;28;8874;-83
2023/04/13 07:48:43;;;;;;;;;7.80;7.00;;;;;16.35;24.93;98331.44;5035519;28;8928;-83
2023/04/13 07:51:28;;;;;;;;;10.80;9.20;;;;;16.49;25.18;98326.09;5003973;28;8858;-83
2023/04/13 07:53:58;;;;;;;;;10.20;10.20;;;;;16.22;26.16;98328.72;5033916;28;8874;-83
2023/04/13 07:56:30;;;;;;;;;12.40;11.80;;;;;16.02;26.80;98325.53;5034342;28;8904;-80
2023/04/13 07:59:01;;;;;;;;;14.40;14.20;;;;;16.37;27.03;98326.88;5034476;28;8886;-83
2023/04/13 08:01:31;;;;;;;;;8.80;8.80;;;;;16.37;26.60;98329.53;5033347;28;8866;-85
2023/04/13 08:04:04;;;;;;;;;16.20;13.80;;;;;16.42;26.65;98330.94;5018247;28;8877;-81
2023/04/13 08:06:36;;;;;;;;;12.80;12.80;;;;;16.66;25.87;98335.63;5020999;28;8889;-81
2023/04/13 08:09:06;;;;;;;;;12.20;12.20;;;;;16.65;26.38;98333.09;5039710;28;9048;-82
2023/04/13 08:11:35;;;;;;;;;12.00;11.80;;;;;16.66;26.46;98332.97;5019989;28;8889;-83
2023/04/13 08:14:10;;;;;;;;;9.20;9.20;;;;;16.88;26.78;98328.91;5018086;28;8877;-82
2023/04/13 08:16:41;;;;;;;;;12.00;12.00;;;;;16.96;26.50;98330.06;5000218;28;8878;-81
2023/04/13 08:19:12;;;;;;;;;12.80;12.80;;;;;17.02;26.17;98334.13;5014484;28;8880;-84
2023/04/13 08:21:48;;;;;;;;;0.00;0.00;;;;;17.03;26.88;98332.34;5052509;28;8864;-83
2023/04/13 08:24:20;;;;;;;;;11.20;11.20;;;;;16.81;26.82;98336.41;5070378;28;8850;-82
2023/04/13 08:26:51;;;;;;;;;13.40;11.00;;;;;16.81;27.17;98336.41;5072962;28;8866;-81
2023/04/13 08:29:20;;;;;;;;;11.40;9.60;;;;;17.03;26.77;98343.81;5073552;28;8881;-84
2023/04/13 08:31:49;;;;;;;;;11.20;10.60;;;;;17.13;26.29;98334.25;5007054;28;8979;-83
2023/04/13 08:34:20;;;;;;;;;10.80;10.80;;;;;17.18;26.15;98331.31;5055292;28;9012;-81
2023/04/13 08:36:51;;;;;;;;;9.40;9.00;;;;;17.33;26.20;98337.41;5088052;28;8843;-83
2023/04/13 08:39:22;;;;;;;;;13.20;11.40;;;;;17.42;26.19;98333.25;5083271;28;8935;-83
2023/04/13 08:41:51;;;;;;;;;9.60;9.60;;;;;17.55;25.92;98335.00;5033175;28;8865;-81
2023/04/13 08:44:23;;;;;;;;;13.40;12.00;;;;;17.55;26.04;98334.13;5050639;28;8845;-83
2023/04/13 08:46:54;;;;;;;;;8.00;6.80;;;;;17.59;25.82;98327.66;5034828;28;8864;-82
2023/04/13 08:49:29;;;;;;;;;10.60;9.20;;;;;17.66;25.76;98330.72;5051186;28;8893;-83
2023/04/13 08:52:17;;;;;;;;;10.80;9.80;;;;;17.86;25.14;98319.53;5066529;28;8874;-82
2023/04/13 08:54:54;;;;;;;;;14.60;12.80;;;;;17.74;25.69;98317.75;5038156;28;8853;-83
2023/04/13 08:57:50;;;;;;;;;11.80;10.00;;;;;17.72;25.58;98317.88;4994426;28;8866;-84
2023/04/13 09:00:41;;;;;;;;;8.00;8.00;;;;;17.91;25.84;98316.53;5029270;28;8844;-81
2023/04/13 09:03:14;;;;;;;;;8.00;7.40;;;;;18.02;25.89;98316.63;5028701;28;8844;-84
2023/04/13 09:05:57;;;;;;;;;7.60;7.40;;;;;18.17;25.45;98314.72;5012445;28;8856;-83
2023/04/13 09:08:33;;;;;;;;;11.20;7.00;;;;;18.37;25.21;98315.09;4977756;28;8988;-76
2023/04/13 09:11:04;;;;;;;;;10.40;10.40;;;;;18.40;25.07;98312.19;5022991;28;8864;-77
2023/04/13 09:13:33;;;;;;;;;9.80;9.20;;;;;18.51;24.93;98318.44;5009578;28;9051;-76
2023/04/13 09:16:03;;;;;;;;;9.60;8.60;;;;;18.39;25.07;98303.38;5012280;28;8857;-86
2023/04/13 09:18:51;;;;;;;;;8.80;8.60;;;;;18.64;24.69;98296.25;5012003;28;8876;-89
2023/04/13 09:21:21;;;;;;;;;8.80;7.20;;;;;18.63;24.68;98294.53;5030875;28;8888;-83
2023/04/13 09:23:58;;;;;;;;;7.40;7.20;;;;;18.55;24.36;98301.28;5035498;28;9060;-84
2023/04/13 09:26:27;;;;;;;;;6.20;6.20;;;;;18.60;24.50;98305.44;5067112;28;8870;-87
2023/04/13 09:28:58;;;;;;;;;7.40;7.40;;;;;18.66;24.21;98300.47;5060360;28;8867;-84
2023/04/13 09:31:27;;;;;;;;;6.60;6.00;;;;;18.69;24.23;98296.75;5044258;28;8900;-84
2023/04/13 09:33:58;;;;;;;;;9.20;9.20;;;;;18.81;23.83;98293.19;5043542;28;9000;-84
2023/04/13 09:36:29;;;;;;;;;8.40;8.40;;;;;18.82;24.32;98302.03;5052648;28;9026;-83
2023/04/13 09:39:01;;;;;;;;;9.60;9.00;;;;;19.00;23.47;98300.66;5076625;28;8898;-85
2023/04/13 09:41:36;;;;;;;;;7.40;7.40;;;;;19.20;23.51;98292.97;5070338;28;9624;-83
2023/04/13 09:44:17;;;;;;;;;10.00;9.00;;;;;19.15;23.47;98303.97;5084875;28;8864;-83
2023/04/13 09:46:57;;;;;;;;;9.60;8.40;;;;;19.14;23.10;98304.94;5066333;28;8902;-85
2023/04/13 09:49:36;;;;;;;;;9.00;9.00;;;;;19.07;23.45;98301.88;5091663;28;10182;-81
2023/04/13 09:52:07;;;;;;;;;7.40;7.40;;;;;19.14;23.61;98299.63;5083149;28;8925;-83
2023/04/13 09:54:39;;;;;;;;;8.60;8.60;;;;;19.18;23.42;98289.53;5099736;28;8993;-82
2023/04/13 09:57:10;;;;;;;;;8.00;8.00;;;;;19.22;23.73;98286.53;5086053;28;8860;-83
2023/04/13 09:59:41;;;;;;;;;9.00;7.00;;;;;19.01;23.65;98283.72;5070550;28;8850;-84
2023/04/13 10:02:11;;;;;;;;;9.80;8.80;;;;;19.08;24.02;98268.09;5082733;28;8848;-83
2023/04/13 10:04:41;;;;;;;;;6.60;6.60;;;;;19.31;24.10;98287.66;5085041;28;8831;-85
2023/04/13 10:07:12;;;;;;;;;6.80;6.80;;;;;19.39;23.38;98279.91;5064250;28;8862;-84
2023/04/13 10:09:44;;;;;;;;;8.40;7.00;;;;;19.54;23.51;98283.22;5058074;28;8871;-85
2023/04/13 10:12:17;;;;;;;;;9.00;9.00;;;;;19.64;23.51;98286.84;5058797;28;8842;-82
2023/04/13 10:14:49;;;;;;;;;9.80;7.80;;;;;19.73;23.44;98281.78;5047796;28;8862;-86
2023/04/13 10:17:52;;;;;;;;;7.00;7.00;;;;;20.01;22.97;98273.28;5036861;28;9774;-85
2023/04/13 10:20:30;;;;;;;;;8.40;8.40;;;;;19.93;23.45;98265.03;5014475;28;8854;-84
2023/04/13 10:23:00;;;;;;;;;8.00;8.00;;;;;19.93;23.27;98254.34;5014771;28;8854;-85
2023/04/13 10:25:32;;;;;;;;;8.00;8.00;;;;;19.94;24.13;98253.41;5010935;28;8848;-85
2023/04/13 10:28:05;;;;;;;;;7.80;6.40;;;;;20.06;23.51;98249.72;5012869;28;8964;-86
2023/04/13 10:30:35;;;;;;;;;9.00;8.80;;;;;20.17;23.52;98250.69;4983875;28;8871;-85
2023/04/13 10:33:06;;;;;;;;;10.60;10.60;;;;;20.34;23.76;98241.34;5011728;28;8941;-88
2023/04/13 10:35:36;;;;;;;;;13.00;9.60;;;;;20.42;23.05;98230.84;4982074;28;8859;-88
2023/04/13 10:38:09;;;;;;;;;10.00;9.20;;;;;20.45;23.45;98233.28;4993691;28;8974;-85
2023/04/13 10:40:47;;;;;;;;;8.80;8.80;;;;;20.58;23.18;98233.97;4998953;28;8876;-86
2023/04/13 10:43:27;;;;;;;;;10.40;9.80;;;;;20.54;23.24;98224.50;5003929;28;9733;-84
2023/04/13 10:46:07;;;;;;;;;9.20;9.00;;;;;20.59;22.84;98230.28;4992975;28;8878;-87
2023/04/13 10:48:37;;;;;;;;;8.00;8.00;;;;;20.51;23.03;98230.09;4992283;28;8909;-87
2023/04/13 10:51:06;;;;;;;;;11.00;11.00;;;;;20.54;23.25;98227.19;4984585;28;8860;-84
2023/04/13 10:53:36;;;;;;;;;9.40;9.40;;;;;20.64;23.25;98228.09;5009498;28;8962;-86
2023/04/13 10:56:17;;;;;;;;;10.00;10.00;;;;;20.83;22.77;98221.22;4984230;28;8866;-86
2023/04/13 10:58:53;;;;;;;;;11.60;11.00;;;;;20.82;22.93;98222.16;4990407;28;9004;-86
2023/04/13 11:01:26;;;;;;;;;9.40;9.40;;;;;20.67;22.71;98217.16;4994346;28;9025;-86
2023/04/13 11:03:58;;;;;;;;;12.00;12.00;;;;;20.82;22.49;98212.34;4930126;28;8965;-88
2023/04/13 11:06:36;;;;;;;;;11.60;10.60;;;;;20.84;22.83;98212.19;4994862;28;8879;-86
2023/04/13 11:09:06;;;;;;;;;12.80;11.80;;;;;20.52;22.96;98205.13;4978137;28;8880;-86
2023/04/13 11:11:38;;;;;;;;;12.20;11.60;;;;;20.48;23.34;98209.84;5049824;28;8833;-84
2023/04/13 11:14:07;;;;;;;;;13.00;12.40;;;;;20.80;23.94;98216.13;5059148;28;8973;-86
2023/04/13 11:16:44;;;;;;;;;13.40;12.40;;;;;21.10;23.13;98202.00;5075362;28;8893;-86
2023/04/13 11:19:14;;;;;;;;;13.00;13.00;;;;;21.02;23.11;98208.00;5065584;28;8896;-85
2023/04/13 11:21:44;;;;;;;;;14.80;13.80;;;;;21.31;22.62;98209.13;5059837;28;8894;-86
2023/04/13 11:24:23;;;;;;;;;10.40;10.40;;;;;21.44;22.30;98207.91;5070760;28;8920;-87
2023/04/13 11:26:56;;;;;;;;;12.60;12.60;;;;;21.51;22.58;98208.25;5028394;28;8891;-86
2023/04/13 11:29:26;;;;;;;;;10.80;10.20;;;;;21.73;22.02;98207.25;5047430;28;8899;-86
2023/04/13 11:31:56;;;;;;;;;12.40;12.20;;;;;21.64;21.94;98208.06;5025268;28;8854;-88
2023/04/13 11:34:27;;;;;;;;;12.40;12.40;;;;;21.91;21.29;98202.06;5072179;28;8854;-87
2023/04/13 11:37:01;;;;;;;;;11.40;11.40;;;;;22.20;21.04;98196.78;5052260;28;8857;-86
2023/04/13 11:39:31;;;;;;;;;12.60;11.80;;;;;22.23;20.78;98199.16;5012387;28;8967;-86
2023/04/13 11:42:07;;;;;;;;;12.60;12.60;;;;;22.28;21.47;98197.91;5085324;28;8905;-84
2023/04/13 11:44:37;;;;;;;;;13.20;12.80;;;;;22.30;21.48;98204.84;5053666;28;8842;-87
2023/04/13 11:47:10;;;;;;;;;12.40;12.40;;;;;22.44;20.94;98200.03;5044743;28;8880;-84
2023/04/13 11:49:46;;;;;;;;;12.60;11.60;;;;;22.54;21.34;98187.47;5052602;28;8883;-88
2023/04/13 11:52:16;;;;;;;;;8.20;7.20;;;;;22.80;20.70;98177.88;5052026;28;8966;-88
2023/04/13 11:54:47;;;;;;;;;9.60;8.00;;;;;22.96;20.12;98177.31;5047889;28;8889;-88
2023/04/13 11:57:21;;;;;;;;;11.00;10.80;;;;;23.09;20.83;98187.72;5028120;28;8874;-86
2023/04/13 11:59:54;;;;;;;;;14.60;12.40;;;;;23.34;20.77;98171.97;5037975;28;9687;-85
2023/04/13 12:02:27;;;;;;;;;11.00;10.40;;;;;23.64;19.99;98162.81;5035001;28;8915;-85